sensor_id;sensor_type;location;lat;lon;timestamp;P1;durP1;ratioP1;P2;durP2;ratioP2
82417;SDS011;75985;53.734;10.260;2024-02-26T00:02:13;4.37;;;3.87;;
82417;SDS011;75985;53.734;10.260;2024-02-26T00:05:18;4.83;;;4.17;;
82417;SDS011;75985;53.734;10.260;2024-02-26T00:08:23;5.15;;;4.25;;
82417;SDS011;75985;53.734;10.260;2024-02-26T00:11:27;6.75;;;5.00;;
82417;SDS011;75985;53.734;10.260;2024-02-26T00:14:32;5.35;;;4.37;;
82417;SDS011;75985;53.734;10.260;2024-02-26T00:17:36;5.80;;;4.95;;
82417;SDS011;75985;53.734;10.260;2024-02-26T00:20:41;6.67;;;4.67;;
82417;SDS011;75985;53.734;10.260;2024-02-26T00:23:45;5.25;;;4.08;;
82417;SDS011;75985;53.734;10.260;2024-02-26T00:26:50;7.17;;;4.75;;
82417;SDS011;75985;53.734;10.260;2024-02-26T00:29:55;5.97;;;4.37;;
82417;SDS011;75985;53.734;10.260;2024-02-26T00:32:59;4.83;;;4.33;;
82417;SDS011;75985;53.734;10.260;2024-02-26T00:36:04;6.05;;;4.53;;
82417;SDS011;75985;53.734;10.260;2024-02-26T00:39:09;5.25;;;4.25;;
82417;SDS011;75985;53.734;10.260;2024-02-26T00:42:15;4.85;;;4.10;;
82417;SDS011;75985;53.734;10.260;2024-02-26T00:45:19;5.50;;;4.10;;
82417;SDS011;75985;53.734;10.260;2024-02-26T00:48:24;6.40;;;4.33;;
82417;SDS011;75985;53.734;10.260;2024-02-26T00:51:29;6.50;;;5.15;;
82417;SDS011;75985;53.734;10.260;2024-02-26T00:54:34;6.53;;;4.92;;
82417;SDS011;75985;53.734;10.260;2024-02-26T00:57:38;5.80;;;5.00;;
82417;SDS011;75985;53.734;10.260;2024-02-26T01:00:43;6.85;;;5.42;;
82417;SDS011;75985;53.734;10.260;2024-02-26T01:03:47;6.08;;;5.00;;
82417;SDS011;75985;53.734;10.260;2024-02-26T01:06:52;8.48;;;5.10;;
82417;SDS011;75985;53.734;10.260;2024-02-26T01:09:56;6.95;;;4.83;;
82417;SDS011;75985;53.734;10.260;2024-02-26T01:13:01;6.20;;;4.90;;
82417;SDS011;75985;53.734;10.260;2024-02-26T01:16:06;5.95;;;4.65;;
82417;SDS011;75985;53.734;10.260;2024-02-26T01:19:10;10.03;;;5.42;;
82417;SDS011;75985;53.734;10.260;2024-02-26T01:22:15;7.90;;;5.40;;
82417;SDS011;75985;53.734;10.260;2024-02-26T01:25:19;9.63;;;6.45;;
82417;SDS011;75985;53.734;10.260;2024-02-26T01:28:24;7.83;;;6.17;;
82417;SDS011;75985;53.734;10.260;2024-02-26T01:31:28;8.95;;;6.45;;
82417;SDS011;75985;53.734;10.260;2024-02-26T01:34:33;10.85;;;6.37;;
82417;SDS011;75985;53.734;10.260;2024-02-26T01:37:39;10.45;;;6.45;;
82417;SDS011;75985;53.734;10.260;2024-02-26T01:40:44;12.15;;;6.92;;
82417;SDS011;75985;53.734;10.260;2024-02-26T01:43:49;12.30;;;6.05;;
82417;SDS011;75985;53.734;10.260;2024-02-26T01:46:54;10.95;;;6.78;;
82417;SDS011;75985;53.734;10.260;2024-02-26T01:49:58;9.48;;;6.00;;
82417;SDS011;75985;53.734;10.260;2024-02-26T01:53:03;10.25;;;6.10;;
82417;SDS011;75985;53.734;10.260;2024-02-26T01:56:08;11.03;;;5.40;;
82417;SDS011;75985;53.734;10.260;2024-02-26T01:59:13;10.30;;;5.97;;
82417;SDS011;75985;53.734;10.260;2024-02-26T02:02:18;9.55;;;4.72;;
82417;SDS011;75985;53.734;10.260;2024-02-26T02:05:22;9.30;;;4.58;;
82417;SDS011;75985;53.734;10.260;2024-02-26T02:08:28;9.30;;;5.53;;
82417;SDS011;75985;53.734;10.260;2024-02-26T02:11:33;11.10;;;5.85;;
82417;SDS011;75985;53.734;10.260;2024-02-26T02:14:38;10.90;;;6.85;;
82417;SDS011;75985;53.734;10.260;2024-02-26T02:17:42;13.05;;;6.40;;
82417;SDS011;75985;53.734;10.260;2024-02-26T02:20:47;15.38;;;8.10;;
82417;SDS011;75985;53.734;10.260;2024-02-26T02:23:52;13.08;;;7.45;;
82417;SDS011;75985;53.734;10.260;2024-02-26T02:26:57;13.08;;;6.92;;
82417;SDS011;75985;53.734;10.260;2024-02-26T02:30:01;13.00;;;7.72;;
82417;SDS011;75985;53.734;10.260;2024-02-26T02:33:07;14.33;;;8.75;;
82417;SDS011;75985;53.734;10.260;2024-02-26T02:36:12;17.90;;;8.75;;
82417;SDS011;75985;53.734;10.260;2024-02-26T02:39:16;16.23;;;7.97;;
82417;SDS011;75985;53.734;10.260;2024-02-26T02:42:21;11.12;;;6.90;;
82417;SDS011;75985;53.734;10.260;2024-02-26T02:45:25;14.85;;;7.80;;
82417;SDS011;75985;53.734;10.260;2024-02-26T02:48:30;10.82;;;6.85;;
82417;SDS011;75985;53.734;10.260;2024-02-26T02:51:34;18.12;;;9.15;;
82417;SDS011;75985;53.734;10.260;2024-02-26T02:54:39;18.75;;;10.15;;
82417;SDS011;75985;53.734;10.260;2024-02-26T02:57:44;20.08;;;9.00;;
82417;SDS011;75985;53.734;10.260;2024-02-26T03:00:49;15.70;;;8.85;;
82417;SDS011;75985;53.734;10.260;2024-02-26T03:03:53;14.15;;;8.70;;
82417;SDS011;75985;53.734;10.260;2024-02-26T03:06:58;15.25;;;8.58;;
82417;SDS011;75985;53.734;10.260;2024-02-26T03:10:03;18.90;;;9.53;;
82417;SDS011;75985;53.734;10.260;2024-02-26T03:13:07;12.98;;;7.35;;
82417;SDS011;75985;53.734;10.260;2024-02-26T03:16:12;15.50;;;7.78;;
82417;SDS011;75985;53.734;10.260;2024-02-26T03:19:16;11.73;;;7.25;;
82417;SDS011;75985;53.734;10.260;2024-02-26T03:22:21;12.18;;;6.20;;
82417;SDS011;75985;53.734;10.260;2024-02-26T03:25:25;9.33;;;6.40;;
82417;SDS011;75985;53.734;10.260;2024-02-26T03:28:30;8.33;;;5.42;;
82417;SDS011;75985;53.734;10.260;2024-02-26T03:31:35;10.20;;;5.87;;
82417;SDS011;75985;53.734;10.260;2024-02-26T03:34:40;9.13;;;6.28;;
82417;SDS011;75985;53.734;10.260;2024-02-26T03:37:45;11.83;;;7.17;;
82417;SDS011;75985;53.734;10.260;2024-02-26T03:40:50;12.75;;;7.65;;
82417;SDS011;75985;53.734;10.260;2024-02-26T03:43:55;14.68;;;7.37;;
82417;SDS011;75985;53.734;10.260;2024-02-26T03:47:00;13.48;;;7.80;;
82417;SDS011;75985;53.734;10.260;2024-02-26T03:50:05;19.45;;;8.03;;
82417;SDS011;75985;53.734;10.260;2024-02-26T03:53:10;14.35;;;7.17;;
82417;SDS011;75985;53.734;10.260;2024-02-26T03:56:15;12.70;;;7.03;;
82417;SDS011;75985;53.734;10.260;2024-02-26T03:59:19;15.68;;;7.78;;
82417;SDS011;75985;53.734;10.260;2024-02-26T04:02:26;13.10;;;6.30;;
82417;SDS011;75985;53.734;10.260;2024-02-26T04:05:30;11.15;;;6.17;;
82417;SDS011;75985;53.734;10.260;2024-02-26T04:08:35;9.95;;;5.60;;
82417;SDS011;75985;53.734;10.260;2024-02-26T04:11:39;13.95;;;7.87;;
82417;SDS011;75985;53.734;10.260;2024-02-26T04:14:45;26.90;;;11.68;;
82417;SDS011;75985;53.734;10.260;2024-02-26T04:17:50;28.32;;;12.95;;
82417;SDS011;75985;53.734;10.260;2024-02-26T04:20:55;22.58;;;9.88;;
82417;SDS011;75985;53.734;10.260;2024-02-26T04:23:59;17.92;;;9.50;;
82417;SDS011;75985;53.734;10.260;2024-02-26T04:27:04;17.62;;;8.70;;
82417;SDS011;75985;53.734;10.260;2024-02-26T04:30:09;18.52;;;8.98;;
82417;SDS011;75985;53.734;10.260;2024-02-26T04:33:14;19.80;;;9.35;;
82417;SDS011;75985;53.734;10.260;2024-02-26T04:36:19;22.00;;;9.35;;
82417;SDS011;75985;53.734;10.260;2024-02-26T04:39:24;20.30;;;9.58;;
82417;SDS011;75985;53.734;10.260;2024-02-26T04:42:29;18.92;;;10.13;;
82417;SDS011;75985;53.734;10.260;2024-02-26T04:45:33;18.20;;;8.73;;
82417;SDS011;75985;53.734;10.260;2024-02-26T04:48:38;15.85;;;8.30;;
82417;SDS011;75985;53.734;10.260;2024-02-26T04:51:44;21.37;;;9.73;;
82417;SDS011;75985;53.734;10.260;2024-02-26T04:54:50;21.05;;;9.43;;
82417;SDS011;75985;53.734;10.260;2024-02-26T04:57:55;20.12;;;8.58;;
82417;SDS011;75985;53.734;10.260;2024-02-26T05:00:59;23.07;;;10.28;;
82417;SDS011;75985;53.734;10.260;2024-02-26T05:04:04;19.45;;;9.70;;
82417;SDS011;75985;53.734;10.260;2024-02-26T05:07:08;15.85;;;8.13;;
82417;SDS011;75985;53.734;10.260;2024-02-26T05:10:13;15.08;;;7.25;;
82417;SDS011;75985;53.734;10.260;2024-02-26T05:13:17;11.35;;;6.05;;
82417;SDS011;75985;53.734;10.260;2024-02-26T05:16:22;13.20;;;6.42;;
82417;SDS011;75985;53.734;10.260;2024-02-26T05:19:28;11.30;;;6.62;;
82417;SDS011;75985;53.734;10.260;2024-02-26T05:22:33;10.93;;;6.35;;
82417;SDS011;75985;53.734;10.260;2024-02-26T05:25:37;11.75;;;5.60;;
82417;SDS011;75985;53.734;10.260;2024-02-26T05:28:42;20.17;;;7.95;;
82417;SDS011;75985;53.734;10.260;2024-02-26T05:31:46;15.40;;;7.83;;
82417;SDS011;75985;53.734;10.260;2024-02-26T05:34:52;11.00;;;6.70;;
82417;SDS011;75985;53.734;10.260;2024-02-26T05:37:56;12.15;;;7.40;;
82417;SDS011;75985;53.734;10.260;2024-02-26T05:41:01;12.18;;;6.83;;
82417;SDS011;75985;53.734;10.260;2024-02-26T05:44:07;11.90;;;6.78;;
82417;SDS011;75985;53.734;10.260;2024-02-26T05:47:13;9.33;;;5.80;;
82417;SDS011;75985;53.734;10.260;2024-02-26T05:50:19;14.63;;;7.30;;
82417;SDS011;75985;53.734;10.260;2024-02-26T05:53:23;12.40;;;7.47;;
82417;SDS011;75985;53.734;10.260;2024-02-26T05:56:28;23.73;;;10.18;;
82417;SDS011;75985;53.734;10.260;2024-02-26T05:59:32;22.15;;;10.40;;
82417;SDS011;75985;53.734;10.260;2024-02-26T06:02:37;24.45;;;12.07;;
82417;SDS011;75985;53.734;10.260;2024-02-26T06:05:42;29.60;;;14.00;;
82417;SDS011;75985;53.734;10.260;2024-02-26T06:08:46;27.87;;;14.60;;
82417;SDS011;75985;53.734;10.260;2024-02-26T06:11:51;30.23;;;14.40;;
82417;SDS011;75985;53.734;10.260;2024-02-26T06:14:56;27.27;;;12.33;;
82417;SDS011;75985;53.734;10.260;2024-02-26T06:18:02;21.35;;;11.57;;
82417;SDS011;75985;53.734;10.260;2024-02-26T06:21:10;20.52;;;10.50;;
82417;SDS011;75985;53.734;10.260;2024-02-26T06:24:15;17.25;;;8.68;;
82417;SDS011;75985;53.734;10.260;2024-02-26T06:27:19;15.93;;;8.00;;
82417;SDS011;75985;53.734;10.260;2024-02-26T06:30:24;11.35;;;7.03;;
82417;SDS011;75985;53.734;10.260;2024-02-26T06:33:29;14.30;;;7.12;;
82417;SDS011;75985;53.734;10.260;2024-02-26T06:36:33;10.38;;;6.15;;
82417;SDS011;75985;53.734;10.260;2024-02-26T06:39:38;14.28;;;8.03;;
82417;SDS011;75985;53.734;10.260;2024-02-26T06:42:43;14.35;;;7.10;;
82417;SDS011;75985;53.734;10.260;2024-02-26T06:45:48;11.55;;;6.58;;
82417;SDS011;75985;53.734;10.260;2024-02-26T06:48:52;9.83;;;6.17;;
82417;SDS011;75985;53.734;10.260;2024-02-26T06:51:57;14.03;;;6.80;;
82417;SDS011;75985;53.734;10.260;2024-02-26T06:55:01;13.80;;;6.10;;
82417;SDS011;75985;53.734;10.260;2024-02-26T06:58:07;9.35;;;5.90;;
82417;SDS011;75985;53.734;10.260;2024-02-26T07:01:12;15.40;;;6.35;;
82417;SDS011;75985;53.734;10.260;2024-02-26T07:04:17;21.55;;;10.68;;
82417;SDS011;75985;53.734;10.260;2024-02-26T07:07:21;25.00;;;10.13;;
82417;SDS011;75985;53.734;10.260;2024-02-26T07:10:26;28.87;;;9.58;;
82417;SDS011;75985;53.734;10.260;2024-02-26T07:13:30;24.05;;;9.13;;
82417;SDS011;75985;53.734;10.260;2024-02-26T07:16:35;23.80;;;10.63;;
82417;SDS011;75985;53.734;10.260;2024-02-26T07:19:40;26.15;;;9.68;;
82417;SDS011;75985;53.734;10.260;2024-02-26T07:22:44;17.57;;;8.25;;
82417;SDS011;75985;53.734;10.260;2024-02-26T07:25:49;17.17;;;8.73;;
82417;SDS011;75985;53.734;10.260;2024-02-26T07:28:55;14.15;;;8.83;;
82417;SDS011;75985;53.734;10.260;2024-02-26T07:32:00;24.65;;;10.65;;
82417;SDS011;75985;53.734;10.260;2024-02-26T07:35:04;17.87;;;9.80;;
82417;SDS011;75985;53.734;10.260;2024-02-26T07:38:09;24.60;;;10.60;;
82417;SDS011;75985;53.734;10.260;2024-02-26T07:41:15;24.72;;;12.40;;
82417;SDS011;75985;53.734;10.260;2024-02-26T07:44:20;23.02;;;11.90;;
82417;SDS011;75985;53.734;10.260;2024-02-26T07:47:24;20.48;;;12.35;;
82417;SDS011;75985;53.734;10.260;2024-02-26T07:50:29;31.82;;;14.43;;
82417;SDS011;75985;53.734;10.260;2024-02-26T07:53:33;21.45;;;12.05;;
82417;SDS011;75985;53.734;10.260;2024-02-26T07:56:38;20.40;;;10.98;;
82417;SDS011;75985;53.734;10.260;2024-02-26T07:59:42;18.45;;;11.22;;
82417;SDS011;75985;53.734;10.260;2024-02-26T08:02:47;16.95;;;10.58;;
82417;SDS011;75985;53.734;10.260;2024-02-26T08:05:52;20.57;;;11.83;;
82417;SDS011;75985;53.734;10.260;2024-02-26T08:08:57;26.00;;;12.85;;
82417;SDS011;75985;53.734;10.260;2024-02-26T08:12:02;19.82;;;10.68;;
82417;SDS011;75985;53.734;10.260;2024-02-26T08:15:07;22.75;;;12.13;;
82417;SDS011;75985;53.734;10.260;2024-02-26T08:18:12;15.60;;;10.20;;
82417;SDS011;75985;53.734;10.260;2024-02-26T08:21:16;22.13;;;11.20;;
82417;SDS011;75985;53.734;10.260;2024-02-26T08:24:21;17.42;;;10.18;;
82417;SDS011;75985;53.734;10.260;2024-02-26T08:27:26;16.57;;;10.13;;
82417;SDS011;75985;53.734;10.260;2024-02-26T08:30:31;18.37;;;10.78;;
82417;SDS011;75985;53.734;10.260;2024-02-26T08:33:36;15.03;;;9.45;;
82417;SDS011;75985;53.734;10.260;2024-02-26T08:36:41;16.50;;;9.48;;
82417;SDS011;75985;53.734;10.260;2024-02-26T08:39:46;17.90;;;10.03;;
82417;SDS011;75985;53.734;10.260;2024-02-26T08:42:50;14.60;;;9.73;;
82417;SDS011;75985;53.734;10.260;2024-02-26T08:45:56;17.20;;;9.48;;
82417;SDS011;75985;53.734;10.260;2024-02-26T08:49:01;13.43;;;9.18;;
82417;SDS011;75985;53.734;10.260;2024-02-26T08:52:05;19.32;;;12.05;;
82417;SDS011;75985;53.734;10.260;2024-02-26T08:55:10;20.05;;;13.18;;
82417;SDS011;75985;53.734;10.260;2024-02-26T08:58:16;23.12;;;11.65;;
82417;SDS011;75985;53.734;10.260;2024-02-26T09:01:20;19.17;;;10.65;;
82417;SDS011;75985;53.734;10.260;2024-02-26T09:04:25;18.85;;;11.10;;
82417;SDS011;75985;53.734;10.260;2024-02-26T09:07:30;14.33;;;9.70;;
82417;SDS011;75985;53.734;10.260;2024-02-26T09:10:36;18.67;;;10.63;;
82417;SDS011;75985;53.734;10.260;2024-02-26T09:13:41;30.50;;;13.70;;
82417;SDS011;75985;53.734;10.260;2024-02-26T09:16:46;22.22;;;11.05;;
82417;SDS011;75985;53.734;10.260;2024-02-26T09:19:51;22.98;;;9.63;;
82417;SDS011;75985;53.734;10.260;2024-02-26T09:22:55;27.77;;;14.18;;
82417;SDS011;75985;53.734;10.260;2024-02-26T09:26:00;28.45;;;14.95;;
82417;SDS011;75985;53.734;10.260;2024-02-26T09:29:04;22.60;;;12.25;;
82417;SDS011;75985;53.734;10.260;2024-02-26T09:32:09;15.32;;;9.48;;
82417;SDS011;75985;53.734;10.260;2024-02-26T09:35:14;19.37;;;11.25;;
82417;SDS011;75985;53.734;10.260;2024-02-26T09:38:18;21.97;;;12.90;;
82417;SDS011;75985;53.734;10.260;2024-02-26T09:41:23;29.52;;;16.57;;
82417;SDS011;75985;53.734;10.260;2024-02-26T09:44:29;28.30;;;16.17;;
82417;SDS011;75985;53.734;10.260;2024-02-26T09:47:36;24.92;;;15.40;;
82417;SDS011;75985;53.734;10.260;2024-02-26T09:50:42;21.35;;;14.73;;
82417;SDS011;75985;53.734;10.260;2024-02-26T09:53:47;29.10;;;14.78;;
82417;SDS011;75985;53.734;10.260;2024-02-26T09:56:53;23.85;;;12.90;;
82417;SDS011;75985;53.734;10.260;2024-02-26T10:00:00;20.95;;;12.98;;
82417;SDS011;75985;53.734;10.260;2024-02-26T10:03:10;25.35;;;13.48;;
82417;SDS011;75985;53.734;10.260;2024-02-26T10:06:18;24.75;;;14.85;;
82417;SDS011;75985;53.734;10.260;2024-02-26T10:09:24;29.42;;;16.57;;
82417;SDS011;75985;53.734;10.260;2024-02-26T10:12:30;23.87;;;13.70;;
82417;SDS011;75985;53.734;10.260;2024-02-26T10:15:36;30.95;;;17.75;;
82417;SDS011;75985;53.734;10.260;2024-02-26T10:18:47;29.35;;;17.15;;
82417;SDS011;75985;53.734;10.260;2024-02-26T10:21:58;33.92;;;16.32;;
82417;SDS011;75985;53.734;10.260;2024-02-26T10:25:04;31.12;;;16.30;;
82417;SDS011;75985;53.734;10.260;2024-02-26T10:28:10;30.43;;;16.48;;
82417;SDS011;75985;53.734;10.260;2024-02-26T10:31:15;38.65;;;19.57;;
82417;SDS011;75985;53.734;10.260;2024-02-26T10:34:19;24.90;;;15.83;;
82417;SDS011;75985;53.734;10.260;2024-02-26T10:37:24;28.73;;;18.35;;
82417;SDS011;75985;53.734;10.260;2024-02-26T10:40:29;35.25;;;19.30;;
82417;SDS011;75985;53.734;10.260;2024-02-26T10:43:33;25.80;;;16.30;;
82417;SDS011;75985;53.734;10.260;2024-02-26T10:46:38;23.95;;;14.90;;
82417;SDS011;75985;53.734;10.260;2024-02-26T10:49:45;20.75;;;14.40;;
82417;SDS011;75985;53.734;10.260;2024-02-26T10:52:50;22.73;;;14.28;;
82417;SDS011;75985;53.734;10.260;2024-02-26T10:55:59;30.08;;;18.25;;
82417;SDS011;75985;53.734;10.260;2024-02-26T10:59:07;36.17;;;21.52;;
82417;SDS011;75985;53.734;10.260;2024-02-26T11:02:16;34.98;;;20.52;;
82417;SDS011;75985;53.734;10.260;2024-02-26T11:05:20;29.85;;;19.12;;
82417;SDS011;75985;53.734;10.260;2024-02-26T11:08:26;30.17;;;18.17;;
82417;SDS011;75985;53.734;10.260;2024-02-26T11:11:32;22.10;;;15.90;;
82417;SDS011;75985;53.734;10.260;2024-02-26T11:14:39;22.02;;;15.03;;
82417;SDS011;75985;53.734;10.260;2024-02-26T11:17:45;26.12;;;18.35;;
82417;SDS011;75985;53.734;10.260;2024-02-26T11:20:51;24.65;;;17.82;;
82417;SDS011;75985;53.734;10.260;2024-02-26T11:23:59;21.75;;;15.48;;
82417;SDS011;75985;53.734;10.260;2024-02-26T11:27:05;29.15;;;20.12;;
82417;SDS011;75985;53.734;10.260;2024-02-26T11:30:12;27.00;;;19.10;;
82417;SDS011;75985;53.734;10.260;2024-02-26T11:33:19;24.57;;;17.65;;
82417;SDS011;75985;53.734;10.260;2024-02-26T11:36:24;24.47;;;17.02;;
82417;SDS011;75985;53.734;10.260;2024-02-26T11:39:28;25.97;;;18.82;;
82417;SDS011;75985;53.734;10.260;2024-02-26T11:42:35;27.02;;;18.17;;
82417;SDS011;75985;53.734;10.260;2024-02-26T11:49:02;24.05;;;17.65;;
82417;SDS011;75985;53.734;10.260;2024-02-26T11:52:09;25.08;;;16.80;;
82417;SDS011;75985;53.734;10.260;2024-02-26T11:55:14;24.30;;;16.40;;
82417;SDS011;75985;53.734;10.260;2024-02-26T11:58:22;23.12;;;15.85;;
82417;SDS011;75985;53.734;10.260;2024-02-26T12:01:39;25.35;;;16.12;;
82417;SDS011;75985;53.734;10.260;2024-02-26T12:04:45;23.18;;;16.00;;
82417;SDS011;75985;53.734;10.260;2024-02-26T12:07:53;22.95;;;15.75;;
82417;SDS011;75985;53.734;10.260;2024-02-26T12:10:59;23.18;;;16.05;;
82417;SDS011;75985;53.734;10.260;2024-02-26T12:14:05;22.73;;;16.15;;
82417;SDS011;75985;53.734;10.260;2024-02-26T12:17:18;26.42;;;16.42;;
82417;SDS011;75985;53.734;10.260;2024-02-26T12:20:21;27.27;;;17.57;;
82417;SDS011;75985;53.734;10.260;2024-02-26T12:23:26;28.70;;;19.35;;
82417;SDS011;75985;53.734;10.260;2024-02-26T12:26:31;27.65;;;18.32;;
82417;SDS011;75985;53.734;10.260;2024-02-26T12:29:35;27.20;;;17.17;;
82417;SDS011;75985;53.734;10.260;2024-02-26T12:32:40;25.30;;;16.57;;
82417;SDS011;75985;53.734;10.260;2024-02-26T12:35:44;23.27;;;15.53;;
82417;SDS011;75985;53.734;10.260;2024-02-26T12:38:50;26.20;;;17.10;;
82417;SDS011;75985;53.734;10.260;2024-02-26T12:41:57;25.40;;;16.35;;
82417;SDS011;75985;53.734;10.260;2024-02-26T12:45:02;20.97;;;15.93;;
82417;SDS011;75985;53.734;10.260;2024-02-26T12:48:09;29.50;;;19.32;;
82417;SDS011;75985;53.734;10.260;2024-02-26T12:51:14;29.25;;;17.82;;
82417;SDS011;75985;53.734;10.260;2024-02-26T12:54:20;27.67;;;18.40;;
82417;SDS011;75985;53.734;10.260;2024-02-26T12:57:25;24.00;;;17.60;;
82417;SDS011;75985;53.734;10.260;2024-02-26T13:00:32;27.00;;;19.37;;
82417;SDS011;75985;53.734;10.260;2024-02-26T13:03:37;27.58;;;19.27;;
82417;SDS011;75985;53.734;10.260;2024-02-26T13:06:42;22.95;;;17.57;;
82417;SDS011;75985;53.734;10.260;2024-02-26T13:09:46;26.12;;;18.42;;
82417;SDS011;75985;53.734;10.260;2024-02-26T13:12:51;22.05;;;17.32;;
82417;SDS011;75985;53.734;10.260;2024-02-26T13:16:08;23.75;;;17.80;;
82417;SDS011;75985;53.734;10.260;2024-02-26T13:19:10;23.25;;;16.90;;
82417;SDS011;75985;53.734;10.260;2024-02-26T13:22:15;21.57;;;16.95;;
82417;SDS011;75985;53.734;10.260;2024-02-26T13:25:20;19.95;;;16.32;;
82417;SDS011;75985;53.734;10.260;2024-02-26T13:28:25;19.45;;;15.72;;
82417;SDS011;75985;53.734;10.260;2024-02-26T13:31:31;18.73;;;15.32;;
82417;SDS011;75985;53.734;10.260;2024-02-26T13:34:38;20.95;;;16.62;;
82417;SDS011;75985;53.734;10.260;2024-02-26T13:37:42;17.60;;;15.25;;
82417;SDS011;75985;53.734;10.260;2024-02-26T13:40:46;18.67;;;15.38;;
82417;SDS011;75985;53.734;10.260;2024-02-26T13:43:51;17.50;;;14.75;;
82417;SDS011;75985;53.734;10.260;2024-02-26T13:46:56;16.17;;;13.93;;
82417;SDS011;75985;53.734;10.260;2024-02-26T13:50:02;17.73;;;14.87;;
82417;SDS011;75985;53.734;10.260;2024-02-26T13:53:06;17.05;;;14.65;;
82417;SDS011;75985;53.734;10.260;2024-02-26T13:56:11;16.97;;;14.30;;
82417;SDS011;75985;53.734;10.260;2024-02-26T13:59:15;17.02;;;15.10;;
82417;SDS011;75985;53.734;10.260;2024-02-26T14:02:20;16.82;;;14.03;;
82417;SDS011;75985;53.734;10.260;2024-02-26T14:05:25;16.60;;;13.80;;
82417;SDS011;75985;53.734;10.260;2024-02-26T14:08:29;16.65;;;14.35;;
82417;SDS011;75985;53.734;10.260;2024-02-26T14:11:34;17.40;;;14.65;;
82417;SDS011;75985;53.734;10.260;2024-02-26T14:14:38;18.12;;;14.05;;
82417;SDS011;75985;53.734;10.260;2024-02-26T14:17:45;15.18;;;12.18;;
82417;SDS011;75985;53.734;10.260;2024-02-26T14:20:51;14.30;;;12.80;;
82417;SDS011;75985;53.734;10.260;2024-02-26T14:23:55;16.48;;;13.22;;
82417;SDS011;75985;53.734;10.260;2024-02-26T14:27:00;14.45;;;12.50;;
82417;SDS011;75985;53.734;10.260;2024-02-26T14:30:05;14.45;;;12.65;;
82417;SDS011;75985;53.734;10.260;2024-02-26T14:33:10;15.43;;;13.15;;
82417;SDS011;75985;53.734;10.260;2024-02-26T14:36:15;13.72;;;12.23;;
82417;SDS011;75985;53.734;10.260;2024-02-26T14:39:19;12.93;;;11.43;;
82417;SDS011;75985;53.734;10.260;2024-02-26T14:42:24;12.50;;;11.08;;
82417;SDS011;75985;53.734;10.260;2024-02-26T14:45:28;12.13;;;10.45;;
82417;SDS011;75985;53.734;10.260;2024-02-26T14:48:33;13.28;;;11.68;;
82417;SDS011;75985;53.734;10.260;2024-02-26T14:51:38;13.22;;;11.10;;
82417;SDS011;75985;53.734;10.260;2024-02-26T14:54:42;11.83;;;10.58;;
82417;SDS011;75985;53.734;10.260;2024-02-26T14:57:47;13.03;;;11.20;;
82417;SDS011;75985;53.734;10.260;2024-02-26T15:00:51;13.60;;;11.55;;
82417;SDS011;75985;53.734;10.260;2024-02-26T15:03:56;13.48;;;11.12;;
82417;SDS011;75985;53.734;10.260;2024-02-26T15:07:00;11.85;;;10.43;;
82417;SDS011;75985;53.734;10.260;2024-02-26T15:10:05;11.28;;;9.73;;
82417;SDS011;75985;53.734;10.260;2024-02-26T15:13:11;14.07;;;11.43;;
82417;SDS011;75985;53.734;10.260;2024-02-26T15:16:19;14.80;;;12.30;;
82417;SDS011;75985;53.734;10.260;2024-02-26T15:19:24;12.53;;;11.22;;
82417;SDS011;75985;53.734;10.260;2024-02-26T15:22:29;12.95;;;10.75;;
82417;SDS011;75985;53.734;10.260;2024-02-26T15:25:33;13.08;;;11.00;;
82417;SDS011;75985;53.734;10.260;2024-02-26T15:28:38;11.20;;;9.65;;
82417;SDS011;75985;53.734;10.260;2024-02-26T15:31:43;12.58;;;11.28;;
82417;SDS011;75985;53.734;10.260;2024-02-26T15:34:48;13.78;;;10.85;;
82417;SDS011;75985;53.734;10.260;2024-02-26T15:37:53;12.58;;;11.28;;
82417;SDS011;75985;53.734;10.260;2024-02-26T15:40:57;11.40;;;10.18;;
82417;SDS011;75985;53.734;10.260;2024-02-26T15:44:02;13.75;;;11.73;;
82417;SDS011;75985;53.734;10.260;2024-02-26T15:47:07;13.00;;;11.60;;
82417;SDS011;75985;53.734;10.260;2024-02-26T15:50:11;12.68;;;10.85;;
82417;SDS011;75985;53.734;10.260;2024-02-26T15:53:16;11.75;;;10.30;;
82417;SDS011;75985;53.734;10.260;2024-02-26T15:56:21;12.60;;;11.30;;
82417;SDS011;75985;53.734;10.260;2024-02-26T15:59:25;13.00;;;10.30;;
82417;SDS011;75985;53.734;10.260;2024-02-26T16:02:30;13.62;;;11.35;;
82417;SDS011;75985;53.734;10.260;2024-02-26T16:05:35;14.68;;;12.40;;
82417;SDS011;75985;53.734;10.260;2024-02-26T16:08:40;15.00;;;12.75;;
82417;SDS011;75985;53.734;10.260;2024-02-26T16:11:44;12.73;;;11.43;;
82417;SDS011;75985;53.734;10.260;2024-02-26T16:14:49;13.75;;;11.60;;
82417;SDS011;75985;53.734;10.260;2024-02-26T16:17:56;14.40;;;11.73;;
82417;SDS011;75985;53.734;10.260;2024-02-26T16:21:01;14.28;;;12.13;;
82417;SDS011;75985;53.734;10.260;2024-02-26T16:24:06;13.30;;;11.85;;
82417;SDS011;75985;53.734;10.260;2024-02-26T16:27:10;13.18;;;11.45;;
82417;SDS011;75985;53.734;10.260;2024-02-26T16:30:15;15.28;;;12.85;;
82417;SDS011;75985;53.734;10.260;2024-02-26T16:33:20;14.60;;;12.85;;
82417;SDS011;75985;53.734;10.260;2024-02-26T16:36:25;16.48;;;12.93;;
82417;SDS011;75985;53.734;10.260;2024-02-26T16:39:30;14.53;;;12.20;;
82417;SDS011;75985;53.734;10.260;2024-02-26T16:42:34;13.20;;;11.45;;
82417;SDS011;75985;53.734;10.260;2024-02-26T16:45:39;14.40;;;11.25;;
82417;SDS011;75985;53.734;10.260;2024-02-26T16:48:44;12.82;;;10.55;;
82417;SDS011;75985;53.734;10.260;2024-02-26T16:51:50;14.43;;;12.47;;
82417;SDS011;75985;53.734;10.260;2024-02-26T16:54:55;16.40;;;13.88;;
82417;SDS011;75985;53.734;10.260;2024-02-26T16:58:00;17.07;;;13.68;;
82417;SDS011;75985;53.734;10.260;2024-02-26T17:01:04;15.35;;;13.13;;
82417;SDS011;75985;53.734;10.260;2024-02-26T17:04:10;16.50;;;13.88;;
82417;SDS011;75985;53.734;10.260;2024-02-26T17:07:15;15.40;;;12.93;;
82417;SDS011;75985;53.734;10.260;2024-02-26T17:10:19;14.95;;;13.20;;
82417;SDS011;75985;53.734;10.260;2024-02-26T17:13:24;12.85;;;11.22;;
82417;SDS011;75985;53.734;10.260;2024-02-26T17:16:30;14.87;;;12.40;;
82417;SDS011;75985;53.734;10.260;2024-02-26T17:19:35;14.75;;;12.70;;
82417;SDS011;75985;53.734;10.260;2024-02-26T17:22:39;14.70;;;12.15;;
82417;SDS011;75985;53.734;10.260;2024-02-26T17:25:44;15.70;;;12.30;;
82417;SDS011;75985;53.734;10.260;2024-02-26T17:28:48;17.55;;;13.28;;
82417;SDS011;75985;53.734;10.260;2024-02-26T17:31:53;17.15;;;13.65;;
82417;SDS011;75985;53.734;10.260;2024-02-26T17:34:59;17.07;;;13.70;;
82417;SDS011;75985;53.734;10.260;2024-02-26T17:38:03;14.38;;;12.03;;
82417;SDS011;75985;53.734;10.260;2024-02-26T17:41:08;14.05;;;11.73;;
82417;SDS011;75985;53.734;10.260;2024-02-26T17:44:14;16.60;;;13.58;;
82417;SDS011;75985;53.734;10.260;2024-02-26T17:47:18;16.57;;;13.05;;
82417;SDS011;75985;53.734;10.260;2024-02-26T17:50:23;19.82;;;15.58;;
82417;SDS011;75985;53.734;10.260;2024-02-26T17:53:29;16.12;;;13.35;;
82417;SDS011;75985;53.734;10.260;2024-02-26T17:56:33;16.93;;;13.58;;
82417;SDS011;75985;53.734;10.260;2024-02-26T17:59:38;17.45;;;13.58;;